Terminal Aerodrome Forecast
Issued by NWS

Home | Current Version | Previous Version | Graphics & Text | Print | Product List | Glossary On
Versions: 1 2 3 4 5 6 7 8 9 10 11 12 13 14 15 16 17 18 19 20 21 22 23 24 25 26 27
897
FTUS43 KLOT 061504 AAA
TAFDPA
TAF AMD
KDPA 061504Z 0615/0712 30006KT 3/4SM BR OVC003
      TEMPO 0615/0617 1/4SM FG OVC002
     FM061700 27005KT 2SM BR OVC004
     FM062100 27013G20KT 6SM BR SCT009 BKN020
     FM070000 26012G18KT P6SM FEW030 SCT250=

USA.gov is the U.S. government's official web portal to all federal, state and local government web resources and services.